sensor_id;sensor_type;location;lat;lon;timestamp;pressure;altitude;pressure_sealevel;temperature;humidity
10127;BME280;13080;42.608;23.362;2023-05-10T00:01:09;152860.00;;;6.95;100.00
10127;BME280;13080;42.608;23.362;2023-05-10T00:03:36;152845.75;;;6.90;100.00
10127;BME280;13080;42.608;23.362;2023-05-10T00:06:03;152849.66;;;6.91;100.00
10127;BME280;13080;42.608;23.362;2023-05-10T00:08:31;152832.81;;;6.84;100.00
10127;BME280;13080;42.608;23.362;2023-05-10T00:10:59;152830.19;;;6.83;100.00
10127;BME280;13080;42.608;23.362;2023-05-10T00:13:26;152801.69;;;6.72;100.00
10127;BME280;13080;42.608;23.362;2023-05-10T00:15:52;152813.34;;;6.77;100.00
10127;BME280;13080;42.608;23.362;2023-05-10T00:18:19;152813.34;;;6.77;100.00
10127;BME280;13080;42.608;23.362;2023-05-10T00:20:46;152812.06;;;6.76;100.00
10127;BME280;13080;42.608;23.362;2023-05-10T00:23:14;152819.88;;;6.79;100.00
10127;BME280;13080;42.608;23.362;2023-05-10T00:25:41;152822.44;;;6.80;100.00
10127;BME280;13080;42.608;23.362;2023-05-10T00:28:09;152809.50;;;6.75;100.00
10127;BME280;13080;42.608;23.362;2023-05-10T00:30:36;152810.78;;;6.76;100.00
10127;BME280;13080;42.608;23.362;2023-05-10T00:33:03;152817.25;;;6.78;100.00
10127;BME280;13080;42.608;23.362;2023-05-10T00:35:29;152812.06;;;6.76;100.00
10127;BME280;13080;42.608;23.362;2023-05-10T00:37:56;152804.31;;;6.73;100.00
10127;BME280;13080;42.608;23.362;2023-05-10T00:40:23;152810.78;;;6.76;100.00
10127;BME280;13080;42.608;23.362;2023-05-10T00:42:50;152815.97;;;6.78;100.00
10127;BME280;13080;42.608;23.362;2023-05-10T00:45:19;152788.78;;;6.67;100.00
10127;BME280;13080;42.608;23.362;2023-05-10T00:47:45;152797.84;;;6.71;100.00
10127;BME280;13080;42.608;23.362;2023-05-10T00:50:13;152769.38;;;6.59;100.00
10127;BME280;13080;42.608;23.362;2023-05-10T00:52:40;152783.59;;;6.65;100.00
10127;BME280;13080;42.608;23.362;2023-05-10T00:55:09;152765.47;;;6.58;100.00
10127;BME280;13080;42.608;23.362;2023-05-10T00:57:36;152765.47;;;6.58;100.00
10127;BME280;13080;42.608;23.362;2023-05-10T01:00:04;152778.41;;;6.63;100.00
10127;BME280;13080;42.608;23.362;2023-05-10T01:02:34;152795.22;;;6.70;100.00
10127;BME280;13080;42.608;23.362;2023-05-10T01:05:02;152795.22;;;6.70;100.00
10127;BME280;13080;42.608;23.362;2023-05-10T01:07:30;152777.13;;;6.62;100.00
10127;BME280;13080;42.608;23.362;2023-05-10T01:09:57;152793.94;;;6.69;100.00
10127;BME280;13080;42.608;23.362;2023-05-10T01:12:24;152799.13;;;6.71;100.00
10127;BME280;13080;42.608;23.362;2023-05-10T01:14:51;152790.06;;;6.68;100.00
10127;BME280;13080;42.608;23.362;2023-05-10T01:17:19;152769.38;;;6.59;100.00
10127;BME280;13080;42.608;23.362;2023-05-10T01:19:47;152778.41;;;6.63;100.00
10127;BME280;13080;42.608;23.362;2023-05-10T01:22:34;152787.47;;;6.66;100.00
10127;BME280;13080;42.608;23.362;2023-05-10T01:25:19;152764.19;;;6.57;100.00
10127;BME280;13080;42.608;23.362;2023-05-10T01:28:14;152771.94;;;6.60;100.00
10127;BME280;13080;42.608;23.362;2023-05-10T01:30:55;152759.00;;;6.55;100.00
10127;BME280;13080;42.608;23.362;2023-05-10T01:33:35;152759.00;;;6.55;100.00
10127;BME280;13080;42.608;23.362;2023-05-10T01:36:10;152755.09;;;6.54;100.00
10127;BME280;13080;42.608;23.362;2023-05-10T01:38:43;152757.72;;;6.55;100.00
10127;BME280;13080;42.608;23.362;2023-05-10T01:41:17;152744.72;;;6.50;100.00
10127;BME280;13080;42.608;23.362;2023-05-10T01:43:53;152742.16;;;6.49;100.00
10127;BME280;13080;42.608;23.362;2023-05-10T01:46:24;152751.19;;;6.52;100.00
10127;BME280;13080;42.608;23.362;2023-05-10T01:48:57;152751.19;;;6.52;100.00
10127;BME280;13080;42.608;23.362;2023-05-10T01:51:28;152738.28;;;6.47;100.00
10127;BME280;13080;42.608;23.362;2023-05-10T01:54:01;152711.06;;;6.36;100.00
10127;BME280;13080;42.608;23.362;2023-05-10T01:56:31;152709.78;;;6.36;100.00
10127;BME280;13080;42.608;23.362;2023-05-10T01:59:00;152686.50;;;6.27;100.00
10127;BME280;13080;42.608;23.362;2023-05-10T02:01:33;152678.75;;;6.23;100.00
10127;BME280;13080;42.608;23.362;2023-05-10T02:04:02;152677.41;;;6.23;100.00
10127;BME280;13080;42.608;23.362;2023-05-10T02:06:31;152687.78;;;6.27;100.00
10127;BME280;13080;42.608;23.362;2023-05-10T02:09:00;152694.25;;;6.30;100.00
10127;BME280;13080;42.608;23.362;2023-05-10T02:11:28;152687.78;;;6.27;100.00
10127;BME280;13080;42.608;23.362;2023-05-10T02:13:57;152661.91;;;6.17;100.00
10127;BME280;13080;42.608;23.362;2023-05-10T02:16:26;152638.63;;;6.08;100.00
10127;BME280;13080;42.608;23.362;2023-05-10T02:18:57;152620.47;;;6.00;100.00
10127;BME280;13080;42.608;23.362;2023-05-10T02:21:28;152620.47;;;6.00;100.00
10127;BME280;13080;42.608;23.362;2023-05-10T02:23:57;152604.97;;;5.94;100.00
10127;BME280;13080;42.608;23.362;2023-05-10T02:26:25;152573.84;;;5.82;100.00
10127;BME280;13080;42.608;23.362;2023-05-10T02:28:53;152562.19;;;5.77;100.00
10127;BME280;13080;42.608;23.362;2023-05-10T02:31:21;152540.19;;;5.69;100.00
10127;BME280;13080;42.608;23.362;2023-05-10T02:33:50;152550.56;;;5.73;100.00
10127;BME280;13080;42.608;23.362;2023-05-10T02:36:20;152528.56;;;5.64;100.00
10127;BME280;13080;42.608;23.362;2023-05-10T02:38:50;152538.91;;;5.68;100.00
10127;BME280;13080;42.608;23.362;2023-05-10T02:41:19;152542.81;;;5.70;100.00
10127;BME280;13080;42.608;23.362;2023-05-10T02:43:49;152519.47;;;5.60;100.00
10127;BME280;13080;42.608;23.362;2023-05-10T02:46:17;152529.84;;;5.65;100.00
10127;BME280;13080;42.608;23.362;2023-05-10T02:48:44;152532.44;;;5.66;100.00
10127;BME280;13080;42.608;23.362;2023-05-10T02:51:12;152509.16;;;5.56;100.00
10127;BME280;13080;42.608;23.362;2023-05-10T02:53:44;152465.19;;;5.39;100.00
10127;BME280;13080;42.608;23.362;2023-05-10T02:56:19;152457.44;;;5.36;100.00
10127;BME280;13080;42.608;23.362;2023-05-10T02:58:48;152457.44;;;5.36;100.00
10127;BME280;13080;42.608;23.362;2023-05-10T03:01:14;152440.63;;;5.29;100.00
10127;BME280;13080;42.608;23.362;2023-05-10T03:03:42;152436.72;;;5.28;100.00
10127;BME280;13080;42.608;23.362;2023-05-10T03:06:08;152432.81;;;5.26;100.00
10127;BME280;13080;42.608;23.362;2023-05-10T03:08:36;152445.75;;;5.31;100.00
10127;BME280;13080;42.608;23.362;2023-05-10T03:11:15;152439.28;;;5.29;100.00
10127;BME280;13080;42.608;23.362;2023-05-10T03:13:48;152438.00;;;5.28;100.00
10127;BME280;13080;42.608;23.362;2023-05-10T03:16:21;152416.00;;;5.19;100.00
10127;BME280;13080;42.608;23.362;2023-05-10T03:18:56;152412.16;;;5.18;100.00
10127;BME280;13080;42.608;23.362;2023-05-10T03:21:29;152403.09;;;5.14;100.00
10127;BME280;13080;42.608;23.362;2023-05-10T03:23:59;152387.56;;;5.08;100.00
10127;BME280;13080;42.608;23.362;2023-05-10T03:26:28;152390.16;;;5.09;100.00
10127;BME280;13080;42.608;23.362;2023-05-10T03:28:55;152405.66;;;5.15;100.00
10127;BME280;13080;42.608;23.362;2023-05-10T03:31:24;152394.00;;;5.11;100.00
10127;BME280;13080;42.608;23.362;2023-05-10T03:33:52;152406.97;;;5.16;100.00
10127;BME280;13080;42.608;23.362;2023-05-10T03:36:19;152400.47;;;5.13;100.00
10127;BME280;13080;42.608;23.362;2023-05-10T03:38:46;152395.34;;;5.11;100.00
10127;BME280;13080;42.608;23.362;2023-05-10T03:41:12;152408.25;;;5.16;100.00
10127;BME280;13080;42.608;23.362;2023-05-10T03:43:41;152418.63;;;5.20;100.00
10127;BME280;13080;42.608;23.362;2023-05-10T03:46:07;152413.44;;;5.18;100.00
10127;BME280;13080;42.608;23.362;2023-05-10T03:48:34;152421.19;;;5.21;100.00
10127;BME280;13080;42.608;23.362;2023-05-10T03:51:03;152416.00;;;5.19;100.00
10127;BME280;13080;42.608;23.362;2023-05-10T03:53:29;152416.00;;;5.19;100.00
10127;BME280;13080;42.608;23.362;2023-05-10T03:55:56;152416.00;;;5.19;100.00
10127;BME280;13080;42.608;23.362;2023-05-10T03:58:24;152410.84;;;5.17;100.00
10127;BME280;13080;42.608;23.362;2023-05-10T04:00:52;152404.38;;;5.15;100.00
10127;BME280;13080;42.608;23.362;2023-05-10T04:03:19;152404.38;;;5.15;100.00
10127;BME280;13080;42.608;23.362;2023-05-10T04:05:46;152418.63;;;5.20;100.00
10127;BME280;13080;42.608;23.362;2023-05-10T04:08:13;152416.00;;;5.19;100.00
10127;BME280;13080;42.608;23.362;2023-05-10T04:10:42;152425.09;;;5.23;100.00
10127;BME280;13080;42.608;23.362;2023-05-10T04:13:09;152436.72;;;5.28;100.00
10127;BME280;13080;42.608;23.362;2023-05-10T04:15:36;152427.66;;;5.24;100.00
10127;BME280;13080;42.608;23.362;2023-05-10T04:18:05;152418.63;;;5.20;100.00
10127;BME280;13080;42.608;23.362;2023-05-10T04:20:32;152431.53;;;5.26;100.00
10127;BME280;13080;42.608;23.362;2023-05-10T04:22:59;152452.25;;;5.34;100.00
10127;BME280;13080;42.608;23.362;2023-05-10T04:25:26;152450.91;;;5.33;100.00
10127;BME280;13080;42.608;23.362;2023-05-10T04:27:53;152485.88;;;5.47;100.00
10127;BME280;13080;42.608;23.362;2023-05-10T04:30:20;152466.47;;;5.39;100.00
10127;BME280;13080;42.608;23.362;2023-05-10T04:32:46;152488.44;;;5.48;100.00
10127;BME280;13080;42.608;23.362;2023-05-10T04:35:15;152485.88;;;5.47;100.00
10127;BME280;13080;42.608;23.362;2023-05-10T04:37:42;152483.28;;;5.46;100.00
10127;BME280;13080;42.608;23.362;2023-05-10T04:40:10;152491.03;;;5.49;100.00
10127;BME280;13080;42.608;23.362;2023-05-10T04:42:36;152447.06;;;5.32;100.00
10127;BME280;13080;42.608;23.362;2023-05-10T04:45:07;152440.63;;;5.29;100.00
10127;BME280;13080;42.608;23.362;2023-05-10T04:47:34;152461.28;;;5.37;100.00
10127;BME280;13080;42.608;23.362;2023-05-10T04:50:02;152482.00;;;5.46;100.00
10127;BME280;13080;42.608;23.362;2023-05-10T04:52:30;152496.19;;;5.51;100.00
10127;BME280;13080;42.608;23.362;2023-05-10T04:54:57;152526.00;;;5.63;100.00
10127;BME280;13080;42.608;23.362;2023-05-10T04:57:24;152523.38;;;5.62;100.00
10127;BME280;13080;42.608;23.362;2023-05-10T04:59:51;152542.81;;;5.70;100.00
10127;BME280;13080;42.608;23.362;2023-05-10T05:02:17;152551.84;;;5.73;100.00
10127;BME280;13080;42.608;23.362;2023-05-10T05:04:44;152579.03;;;5.84;100.00
10127;BME280;13080;42.608;23.362;2023-05-10T05:07:11;152582.91;;;5.86;100.00
10127;BME280;13080;42.608;23.362;2023-05-10T05:09:39;152598.41;;;5.92;100.00
10127;BME280;13080;42.608;23.362;2023-05-10T05:12:06;152617.91;;;5.99;100.00
10127;BME280;13080;42.608;23.362;2023-05-10T05:14:32;152616.63;;;5.99;100.00
10127;BME280;13080;42.608;23.362;2023-05-10T05:16:59;152621.81;;;6.01;100.00
10127;BME280;13080;42.608;23.362;2023-05-10T05:19:26;152620.47;;;6.00;100.00
10127;BME280;13080;42.608;23.362;2023-05-10T05:21:53;152621.81;;;6.01;100.00
10127;BME280;13080;42.608;23.362;2023-05-10T05:24:20;152620.47;;;6.00;100.00
10127;BME280;13080;42.608;23.362;2023-05-10T05:26:48;152625.66;;;6.02;100.00
10127;BME280;13080;42.608;23.362;2023-05-10T05:29:15;152624.38;;;6.02;100.00
10127;BME280;13080;42.608;23.362;2023-05-10T05:31:41;152629.53;;;6.04;100.00
10127;BME280;13080;42.608;23.362;2023-05-10T05:34:08;152647.66;;;6.11;100.00
10127;BME280;13080;42.608;23.362;2023-05-10T05:36:36;152639.91;;;6.08;100.00
10127;BME280;13080;42.608;23.362;2023-05-10T05:39:04;152643.75;;;6.10;100.00
10127;BME280;13080;42.608;23.362;2023-05-10T05:41:31;152646.38;;;6.11;100.00
10127;BME280;13080;42.608;23.362;2023-05-10T05:43:59;152620.47;;;6.00;100.00
10127;BME280;13080;42.608;23.362;2023-05-10T05:46:26;152571.28;;;5.81;100.00
10127;BME280;13080;42.608;23.362;2023-05-10T05:48:53;152586.78;;;5.87;100.00
10127;BME280;13080;42.608;23.362;2023-05-10T05:51:19;152595.84;;;5.91;100.00
10127;BME280;13080;42.608;23.362;2023-05-10T05:53:46;152581.59;;;5.85;100.00
10127;BME280;13080;42.608;23.362;2023-05-10T05:56:13;152595.84;;;5.91;100.00
10127;BME280;13080;42.608;23.362;2023-05-10T05:58:40;152593.28;;;5.90;100.00
10127;BME280;13080;42.608;23.362;2023-05-10T06:01:08;152616.63;;;5.99;100.00
10127;BME280;13080;42.608;23.362;2023-05-10T06:03:35;152602.31;;;5.93;100.00
10127;BME280;13080;42.608;23.362;2023-05-10T06:06:02;152589.38;;;5.88;100.00
10127;BME280;13080;42.608;23.362;2023-05-10T06:08:29;152579.03;;;5.84;100.00
10127;BME280;13080;42.608;23.362;2023-05-10T06:10:56;152588.09;;;5.88;100.00
10127;BME280;13080;42.608;23.362;2023-05-10T06:13:22;152619.19;;;6.00;100.00
10127;BME280;13080;42.608;23.362;2023-05-10T06:15:49;152616.63;;;5.99;100.00
10127;BME280;13080;42.608;23.362;2023-05-10T06:18:17;152617.91;;;5.99;100.00
10127;BME280;13080;42.608;23.362;2023-05-10T06:20:44;152643.75;;;6.10;100.00
10127;BME280;13080;42.608;23.362;2023-05-10T06:23:11;152629.53;;;6.04;100.00
10127;BME280;13080;42.608;23.362;2023-05-10T06:25:38;152656.72;;;6.15;100.00
10127;BME280;13080;42.608;23.362;2023-05-10T06:28:04;152646.38;;;6.11;100.00
10127;BME280;13080;42.608;23.362;2023-05-10T06:30:31;152621.81;;;6.01;100.00
10127;BME280;13080;42.608;23.362;2023-05-10T06:32:58;152629.53;;;6.04;100.00
10127;BME280;13080;42.608;23.362;2023-05-10T06:35:26;152645.09;;;6.10;100.00
10127;BME280;13080;42.608;23.362;2023-05-10T06:37:54;152655.41;;;6.14;100.00
10127;BME280;13080;42.608;23.362;2023-05-10T06:40:21;152667.09;;;6.19;100.00
10127;BME280;13080;42.608;23.362;2023-05-10T06:42:48;152654.13;;;6.14;100.00
10127;BME280;13080;42.608;23.362;2023-05-10T06:45:15;152663.19;;;6.17;100.00
10127;BME280;13080;42.608;23.362;2023-05-10T06:47:42;152650.28;;;6.12;100.00
10127;BME280;13080;42.608;23.362;2023-05-10T06:50:11;152648.94;;;6.12;100.00
10127;BME280;13080;42.608;23.362;2023-05-10T06:52:41;152664.47;;;6.18;100.00
10127;BME280;13080;42.608;23.362;2023-05-10T06:55:08;152669.66;;;6.20;100.00
10127;BME280;13080;42.608;23.362;2023-05-10T06:57:35;152661.91;;;6.17;100.00
10127;BME280;13080;42.608;23.362;2023-05-10T07:00:03;152652.84;;;6.13;100.00
10127;BME280;13080;42.608;23.362;2023-05-10T07:02:30;152648.94;;;6.12;100.00
10127;BME280;13080;42.608;23.362;2023-05-10T07:04:57;152633.44;;;6.06;100.00
10127;BME280;13080;42.608;23.362;2023-05-10T07:07:23;152642.47;;;6.09;100.00
10127;BME280;13080;42.608;23.362;2023-05-10T07:09:52;152655.41;;;6.14;100.00
10127;BME280;13080;42.608;23.362;2023-05-10T07:12:19;152664.47;;;6.18;100.00
10127;BME280;13080;42.608;23.362;2023-05-10T07:14:46;152687.78;;;6.27;100.00
10127;BME280;13080;42.608;23.362;2023-05-10T07:17:12;152702.03;;;6.33;100.00
10127;BME280;13080;42.608;23.362;2023-05-10T07:19:39;152678.75;;;6.23;100.00
10127;BME280;13080;42.608;23.362;2023-05-10T07:22:06;152698.13;;;6.31;100.00
10127;BME280;13080;42.608;23.362;2023-05-10T07:24:33;152685.22;;;6.26;100.00
10127;BME280;13080;42.608;23.362;2023-05-10T07:27:01;152665.75;;;6.18;100.00
10127;BME280;13080;42.608;23.362;2023-05-10T07:29:29;152702.03;;;6.33;100.00
10127;BME280;13080;42.608;23.362;2023-05-10T07:31:56;152683.94;;;6.26;100.00
10127;BME280;13080;42.608;23.362;2023-05-10T07:34:23;152670.94;;;6.20;100.00
10127;BME280;13080;42.608;23.362;2023-05-10T07:36:51;152690.41;;;6.28;100.00
10127;BME280;13080;42.608;23.362;2023-05-10T07:39:18;152687.78;;;6.27;100.00
10127;BME280;13080;42.608;23.362;2023-05-10T07:41:45;152705.88;;;6.34;100.00
10127;BME280;13080;42.608;23.362;2023-05-10T07:44:14;152696.84;;;6.31;100.00
10127;BME280;13080;42.608;23.362;2023-05-10T07:46:43;152685.22;;;6.26;100.00
10127;BME280;13080;42.608;23.362;2023-05-10T07:49:10;152674.84;;;6.22;100.00
10127;BME280;13080;42.608;23.362;2023-05-10T07:51:37;152669.66;;;6.20;100.00
10127;BME280;13080;42.608;23.362;2023-05-10T07:54:04;152676.13;;;6.22;100.00
10127;BME280;13080;42.608;23.362;2023-05-10T07:56:32;152678.75;;;6.23;100.00
10127;BME280;13080;42.608;23.362;2023-05-10T07:59:00;152709.78;;;6.36;100.00
10127;BME280;13080;42.608;23.362;2023-05-10T08:01:30;152742.16;;;6.49;100.00
10127;BME280;13080;42.608;23.362;2023-05-10T08:03:57;152734.38;;;6.45;100.00
10127;BME280;13080;42.608;23.362;2023-05-10T08:06:25;152726.63;;;6.42;100.00
10127;BME280;13080;42.608;23.362;2023-05-10T08:08:53;152751.19;;;6.52;100.00
10127;BME280;13080;42.608;23.362;2023-05-10T08:11:20;152743.44;;;6.49;100.00
10127;BME280;13080;42.608;23.362;2023-05-10T08:13:49;152773.22;;;6.61;100.00
10127;BME280;13080;42.608;23.362;2023-05-10T08:16:16;152770.66;;;6.60;100.00
10127;BME280;13080;42.608;23.362;2023-05-10T08:18:45;152778.41;;;6.63;100.00
10127;BME280;13080;42.608;23.362;2023-05-10T08:21:13;152774.56;;;6.61;100.00
10127;BME280;13080;42.608;23.362;2023-05-10T08:23:40;152778.41;;;6.63;100.00
10127;BME280;13080;42.608;23.362;2023-05-10T08:26:08;152782.31;;;6.64;100.00
10127;BME280;13080;42.608;23.362;2023-05-10T08:28:35;152784.88;;;6.65;100.00
10127;BME280;13080;42.608;23.362;2023-05-10T08:31:02;152782.31;;;6.64;100.00
10127;BME280;13080;42.608;23.362;2023-05-10T08:33:29;152806.88;;;6.74;100.00
10127;BME280;13080;42.608;23.362;2023-05-10T08:35:57;152801.69;;;6.72;100.00
10127;BME280;13080;42.608;23.362;2023-05-10T08:38:24;152835.38;;;6.85;100.00
10127;BME280;13080;42.608;23.362;2023-05-10T08:40:54;152848.34;;;6.91;100.00
10127;BME280;13080;42.608;23.362;2023-05-10T08:43:25;152867.78;;;6.98;100.00
10127;BME280;13080;42.608;23.362;2023-05-10T08:45:54;152880.72;;;7.03;100.00
10127;BME280;13080;42.608;23.362;2023-05-10T08:48:22;152914.38;;;7.17;100.00
10127;BME280;13080;42.608;23.362;2023-05-10T08:50:52;152905.34;;;7.13;100.00
10127;BME280;13080;42.608;23.362;2023-05-10T08:53:21;152880.72;;;7.03;100.00
10127;BME280;13080;42.608;23.362;2023-05-10T08:55:50;152858.69;;;6.95;100.00
10127;BME280;13080;42.608;23.362;2023-05-10T08:58:17;152856.13;;;6.94;100.00
10127;BME280;13080;42.608;23.362;2023-05-10T09:00:46;152885.88;;;7.05;100.00
10127;BME280;13080;42.608;23.362;2023-05-10T09:03:13;152885.88;;;7.05;100.00
10127;BME280;13080;42.608;23.362;2023-05-10T09:05:41;152906.63;;;7.14;100.00
10127;BME280;13080;42.608;23.362;2023-05-10T09:08:08;152927.31;;;7.22;100.00
10127;BME280;13080;42.608;23.362;2023-05-10T09:10:38;152917.00;;;7.18;100.00
10127;BME280;13080;42.608;23.362;2023-05-10T09:13:05;152918.28;;;7.18;100.00
10127;BME280;13080;42.608;23.362;2023-05-10T09:15:33;152931.22;;;7.23;100.00
10127;BME280;13080;42.608;23.362;2023-05-10T09:18:00;152948.06;;;7.30;100.00
10127;BME280;13080;42.608;23.362;2023-05-10T09:20:27;152951.97;;;7.32;100.00
10127;BME280;13080;42.608;23.362;2023-05-10T09:22:54;152922.19;;;7.20;100.00
10127;BME280;13080;42.608;23.362;2023-05-10T09:25:21;152932.50;;;7.24;100.00
10127;BME280;13080;42.608;23.362;2023-05-10T09:27:49;152929.94;;;7.23;100.00
10127;BME280;13080;42.608;23.362;2023-05-10T09:30:17;152931.22;;;7.23;100.00
10127;BME280;13080;42.608;23.362;2023-05-10T09:32:45;152970.09;;;7.39;100.00
10127;BME280;13080;42.608;23.362;2023-05-10T09:35:14;152972.66;;;7.40;100.00
10127;BME280;13080;42.608;23.362;2023-05-10T09:37:42;152974.00;;;7.40;100.00
10127;BME280;13080;42.608;23.362;2023-05-10T09:40:12;153029.72;;;7.62;100.00
10127;BME280;13080;42.608;23.362;2023-05-10T09:42:40;153033.59;;;7.64;100.00
10127;BME280;13080;42.608;23.362;2023-05-10T09:45:09;153050.44;;;7.70;100.00
10127;BME280;13080;42.608;23.362;2023-05-10T09:47:36;153066.00;;;7.77;100.00
10127;BME280;13080;42.608;23.362;2023-05-10T09:50:03;153089.31;;;7.86;100.00
10127;BME280;13080;42.608;23.362;2023-05-10T09:52:31;153095.78;;;7.88;100.00
10127;BME280;13080;42.608;23.362;2023-05-10T09:55:11;153082.84;;;7.83;100.00
10127;BME280;13080;42.608;23.362;2023-05-10T09:57:38;153103.59;;;7.91;100.00
10127;BME280;13080;42.608;23.362;2023-05-10T10:00:06;153107.47;;;7.93;100.00
10127;BME280;13080;42.608;23.362;2023-05-10T10:02:36;153107.47;;;7.93;100.00
10127;BME280;13080;42.608;23.362;2023-05-10T10:05:04;153089.31;;;7.86;98.07
10127;BME280;13080;42.608;23.362;2023-05-10T10:07:32;153102.25;;;7.91;100.00
10127;BME280;13080;42.608;23.362;2023-05-10T10:10:00;153099.69;;;7.90;100.00
10127;BME280;13080;42.608;23.362;2023-05-10T10:12:27;153128.22;;;8.01;100.00
10127;BME280;13080;42.608;23.362;2023-05-10T10:14:55;153119.13;;;7.98;100.00
10127;BME280;13080;42.608;23.362;2023-05-10T10:17:24;153120.44;;;7.98;100.00
10127;BME280;13080;42.608;23.362;2023-05-10T10:19:55;153135.97;;;8.04;99.91
10127;BME280;13080;42.608;23.362;2023-05-10T10:22:23;153128.22;;;8.01;100.00
10127;BME280;13080;42.608;23.362;2023-05-10T10:24:50;153163.19;;;8.15;100.00
10127;BME280;13080;42.608;23.362;2023-05-10T10:27:23;153159.28;;;8.13;98.85
10127;BME280;13080;42.608;23.362;2023-05-10T10:30:01;153154.09;;;8.11;100.00
10127;BME280;13080;42.608;23.362;2023-05-10T10:32:38;153180.06;;;8.22;98.90
10127;BME280;13080;42.608;23.362;2023-05-10T10:35:11;153190.44;;;8.26;98.49
10127;BME280;13080;42.608;23.362;2023-05-10T10:37:43;153190.44;;;8.26;100.00
10127;BME280;13080;42.608;23.362;2023-05-10T10:40:22;153191.72;;;8.26;100.00
10127;BME280;13080;42.608;23.362;2023-05-10T10:42:49;153180.06;;;8.22;99.17
10127;BME280;13080;42.608;23.362;2023-05-10T10:45:16;153180.06;;;8.22;100.00
10127;BME280;13080;42.608;23.362;2023-05-10T10:47:43;153177.50;;;8.21;99.23
10127;BME280;13080;42.608;23.362;2023-05-10T10:50:12;153182.63;;;8.23;99.51
10127;BME280;13080;42.608;23.362;2023-05-10T10:52:42;153170.97;;;8.18;99.17
10127;BME280;13080;42.608;23.362;2023-05-10T10:55:10;153173.59;;;8.19;98.10
10127;BME280;13080;42.608;23.362;2023-05-10T10:57:46;153173.59;;;8.19;97.88
10127;BME280;13080;42.608;23.362;2023-05-10T11:00:27;153185.25;;;8.24;96.64
10127;BME280;13080;42.608;23.362;2023-05-10T11:02:57;153200.81;;;8.30;98.73
10127;BME280;13080;42.608;23.362;2023-05-10T11:05:37;153202.09;;;8.30;97.55
10127;BME280;13080;42.608;23.362;2023-05-10T11:08:14;153230.66;;;8.42;98.66
10127;BME280;13080;42.608;23.362;2023-05-10T11:10:53;153278.63;;;8.61;97.39
10127;BME280;13080;42.608;23.362;2023-05-10T11:13:30;153291.63;;;8.66;98.04
10127;BME280;13080;42.608;23.362;2023-05-10T11:15:57;153307.16;;;8.72;94.28
10127;BME280;13080;42.608;23.362;2023-05-10T11:18:26;153313.69;;;8.74;94.68
10127;BME280;13080;42.608;23.362;2023-05-10T11:20:57;153311.06;;;8.73;93.23
10127;BME280;13080;42.608;23.362;2023-05-10T11:23:30;153285.16;;;8.63;96.54
10127;BME280;13080;42.608;23.362;2023-05-10T11:25:57;153309.78;;;8.73;95.96
10127;BME280;13080;42.608;23.362;2023-05-10T11:28:25;153308.50;;;8.72;93.63
10127;BME280;13080;42.608;23.362;2023-05-10T11:30:53;153289.00;;;8.65;95.37
10127;BME280;13080;42.608;23.362;2023-05-10T11:33:20;153279.97;;;8.61;95.93
10127;BME280;13080;42.608;23.362;2023-05-10T11:35:47;153294.19;;;8.67;97.24
10127;BME280;13080;42.608;23.362;2023-05-10T11:38:15;153302.03;;;8.70;94.21
10127;BME280;13080;42.608;23.362;2023-05-10T11:40:43;153316.25;;;8.76;95.37
10127;BME280;13080;42.608;23.362;2023-05-10T11:43:09;153300.69;;;8.69;94.71
10127;BME280;13080;42.608;23.362;2023-05-10T11:45:38;153322.72;;;8.78;94.01
10127;BME280;13080;42.608;23.362;2023-05-10T11:48:06;153278.63;;;8.61;94.78
10127;BME280;13080;42.608;23.362;2023-05-10T11:50:33;153294.19;;;8.67;96.12
10127;BME280;13080;42.608;23.362;2023-05-10T11:53:00;153300.69;;;8.69;95.64
10127;BME280;13080;42.608;23.362;2023-05-10T11:55:29;153277.34;;;8.60;96.84
10127;BME280;13080;42.608;23.362;2023-05-10T11:58:00;153247.53;;;8.48;96.97
10127;BME280;13080;42.608;23.362;2023-05-10T12:00:28;153251.44;;;8.50;97.82
10127;BME280;13080;42.608;23.362;2023-05-10T12:02:56;153225.44;;;8.40;98.21
10127;BME280;13080;42.608;23.362;2023-05-10T12:05:23;153241.06;;;8.46;96.03
10127;BME280;13080;42.608;23.362;2023-05-10T12:07:50;153264.38;;;8.55;96.51
10127;BME280;13080;42.608;23.362;2023-05-10T12:10:25;153270.88;;;8.58;94.96
10127;BME280;13080;42.608;23.362;2023-05-10T12:12:53;153255.28;;;8.51;94.73
10127;BME280;13080;42.608;23.362;2023-05-10T12:15:22;153226.78;;;8.40;95.44
10127;BME280;13080;42.608;23.362;2023-05-10T12:17:50;153277.34;;;8.60;96.36
10127;BME280;13080;42.608;23.362;2023-05-10T12:20:18;153274.78;;;8.59;96.34
10127;BME280;13080;42.608;23.362;2023-05-10T12:22:46;153298.13;;;8.68;96.53
10127;BME280;13080;42.608;23.362;2023-05-10T12:25:13;153289.00;;;8.65;95.29
10127;BME280;13080;42.608;23.362;2023-05-10T12:27:41;153286.44;;;8.64;98.06
10127;BME280;13080;42.608;23.362;2023-05-10T12:30:19;153269.59;;;8.57;97.30
10127;BME280;13080;42.608;23.362;2023-05-10T12:32:45;153266.97;;;8.56;96.45
10127;BME280;13080;42.608;23.362;2023-05-10T12:35:12;153277.34;;;8.60;96.44
10127;BME280;13080;42.608;23.362;2023-05-10T12:37:39;153314.97;;;8.75;95.11
10127;BME280;13080;42.608;23.362;2023-05-10T12:40:08;153307.16;;;8.72;95.58
10127;BME280;13080;42.608;23.362;2023-05-10T12:42:36;153329.22;;;8.81;95.37
10127;BME280;13080;42.608;23.362;2023-05-10T12:45:05;153314.97;;;8.75;95.59
10127;BME280;13080;42.608;23.362;2023-05-10T12:47:34;153324.03;;;8.79;94.54
10127;BME280;13080;42.608;23.362;2023-05-10T12:50:02;153334.41;;;8.83;94.48